sensor_id;sensor_type;location;lat;lon;timestamp;P1;durP1;ratioP1;P2;durP2;ratioP2
66607;SDS011;53462;39.616;8.824;2023-06-04T00:02:25;7.95;;;5.13;;
66607;SDS011;53462;39.616;8.824;2023-06-04T00:04:51;7.95;;;5.07;;
66607;SDS011;53462;39.616;8.824;2023-06-04T00:07:17;8.35;;;5.30;;
66607;SDS011;53462;39.616;8.824;2023-06-04T00:09:43;7.32;;;5.00;;
66607;SDS011;53462;39.616;8.824;2023-06-04T00:12:12;10.48;;;5.60;;
66607;SDS011;53462;39.616;8.824;2023-06-04T00:14:38;9.45;;;5.38;;
66607;SDS011;53462;39.616;8.824;2023-06-04T00:17:04;9.55;;;5.20;;
66607;SDS011;53462;39.616;8.824;2023-06-04T00:19:30;10.18;;;5.03;;
66607;SDS011;53462;39.616;8.824;2023-06-04T00:21:56;7.60;;;5.60;;
66607;SDS011;53462;39.616;8.824;2023-06-04T00:24:22;7.72;;;5.38;;
66607;SDS011;53462;39.616;8.824;2023-06-04T00:26:48;10.63;;;5.22;;
66607;SDS011;53462;39.616;8.824;2023-06-04T00:29:14;7.57;;;5.05;;
66607;SDS011;53462;39.616;8.824;2023-06-04T00:31:40;8.95;;;5.45;;
66607;SDS011;53462;39.616;8.824;2023-06-04T00:34:06;8.07;;;5.35;;
66607;SDS011;53462;39.616;8.824;2023-06-04T00:36:32;7.93;;;5.70;;
66607;SDS011;53462;39.616;8.824;2023-06-04T00:38:58;7.80;;;5.25;;
66607;SDS011;53462;39.616;8.824;2023-06-04T00:41:24;8.35;;;5.60;;
66607;SDS011;53462;39.616;8.824;2023-06-04T00:43:50;8.30;;;5.80;;
66607;SDS011;53462;39.616;8.824;2023-06-04T00:46:24;11.68;;;6.40;;
66607;SDS011;53462;39.616;8.824;2023-06-04T00:48:52;8.70;;;5.90;;
66607;SDS011;53462;39.616;8.824;2023-06-04T00:51:19;8.63;;;5.85;;
66607;SDS011;53462;39.616;8.824;2023-06-04T00:53:46;10.82;;;6.45;;
66607;SDS011;53462;39.616;8.824;2023-06-04T00:56:14;7.97;;;5.90;;
66607;SDS011;53462;39.616;8.824;2023-06-04T00:58:40;8.98;;;6.18;;
66607;SDS011;53462;39.616;8.824;2023-06-04T01:01:07;9.30;;;6.28;;
66607;SDS011;53462;39.616;8.824;2023-06-04T01:04:02;9.25;;;6.68;;
66607;SDS011;53462;39.616;8.824;2023-06-04T01:06:40;9.07;;;6.57;;
66607;SDS011;53462;39.616;8.824;2023-06-04T01:09:10;9.45;;;6.32;;
66607;SDS011;53462;39.616;8.824;2023-06-04T01:11:37;8.15;;;6.40;;
66607;SDS011;53462;39.616;8.824;2023-06-04T01:14:05;11.95;;;7.22;;
66607;SDS011;53462;39.616;8.824;2023-06-04T01:16:42;10.50;;;7.50;;
66607;SDS011;53462;39.616;8.824;2023-06-04T01:19:32;10.77;;;6.90;;
66607;SDS011;53462;39.616;8.824;2023-06-04T01:25:04;11.75;;;7.82;;
66607;SDS011;53462;39.616;8.824;2023-06-04T01:30:06;14.20;;;7.50;;
66607;SDS011;53462;39.616;8.824;2023-06-04T01:32:33;13.98;;;8.40;;
66607;SDS011;53462;39.616;8.824;2023-06-04T01:34:59;13.20;;;8.48;;
66607;SDS011;53462;39.616;8.824;2023-06-04T01:37:25;15.05;;;8.95;;
66607;SDS011;53462;39.616;8.824;2023-06-04T01:39:51;16.42;;;8.82;;
66607;SDS011;53462;39.616;8.824;2023-06-04T01:42:17;12.27;;;8.40;;
66607;SDS011;53462;39.616;8.824;2023-06-04T01:44:43;15.63;;;9.15;;
66607;SDS011;53462;39.616;8.824;2023-06-04T01:47:09;14.60;;;9.23;;
66607;SDS011;53462;39.616;8.824;2023-06-04T01:49:35;14.32;;;8.52;;
66607;SDS011;53462;39.616;8.824;2023-06-04T01:52:02;15.93;;;9.10;;
66607;SDS011;53462;39.616;8.824;2023-06-04T01:54:29;13.13;;;8.73;;
66607;SDS011;53462;39.616;8.824;2023-06-04T01:56:58;13.75;;;8.75;;
66607;SDS011;53462;39.616;8.824;2023-06-04T01:59:23;16.92;;;8.57;;
66607;SDS011;53462;39.616;8.824;2023-06-04T02:01:50;15.20;;;8.95;;
66607;SDS011;53462;39.616;8.824;2023-06-04T02:04:16;14.00;;;8.48;;
66607;SDS011;53462;39.616;8.824;2023-06-04T02:06:42;15.45;;;8.63;;
66607;SDS011;53462;39.616;8.824;2023-06-04T02:09:08;17.10;;;9.48;;
66607;SDS011;53462;39.616;8.824;2023-06-04T02:11:34;15.57;;;8.95;;
66607;SDS011;53462;39.616;8.824;2023-06-04T02:14:00;20.25;;;9.90;;
66607;SDS011;53462;39.616;8.824;2023-06-04T02:16:26;13.98;;;9.95;;
66607;SDS011;53462;39.616;8.824;2023-06-04T02:18:52;15.80;;;10.05;;
66607;SDS011;53462;39.616;8.824;2023-06-04T02:21:18;19.27;;;10.65;;
66607;SDS011;53462;39.616;8.824;2023-06-04T02:23:45;20.63;;;10.25;;
66607;SDS011;53462;39.616;8.824;2023-06-04T02:26:11;16.48;;;9.88;;
66607;SDS011;53462;39.616;8.824;2023-06-04T02:28:37;24.30;;;10.63;;
66607;SDS011;53462;39.616;8.824;2023-06-04T02:31:03;19.63;;;10.45;;
66607;SDS011;53462;39.616;8.824;2023-06-04T02:33:29;19.10;;;11.27;;
66607;SDS011;53462;39.616;8.824;2023-06-04T02:35:55;19.15;;;10.52;;
66607;SDS011;53462;39.616;8.824;2023-06-04T02:38:21;20.52;;;11.38;;
66607;SDS011;53462;39.616;8.824;2023-06-04T02:40:47;23.13;;;12.00;;
66607;SDS011;53462;39.616;8.824;2023-06-04T02:43:13;19.50;;;11.07;;
66607;SDS011;53462;39.616;8.824;2023-06-04T02:45:38;17.23;;;11.68;;
66607;SDS011;53462;39.616;8.824;2023-06-04T02:48:04;21.73;;;11.77;;
66607;SDS011;53462;39.616;8.824;2023-06-04T02:50:30;20.23;;;12.15;;
66607;SDS011;53462;39.616;8.824;2023-06-04T02:52:56;20.40;;;11.88;;
66607;SDS011;53462;39.616;8.824;2023-06-04T02:55:22;19.73;;;11.88;;
66607;SDS011;53462;39.616;8.824;2023-06-04T02:57:49;18.50;;;11.43;;
66607;SDS011;53462;39.616;8.824;2023-06-04T03:00:17;18.85;;;12.25;;
66607;SDS011;53462;39.616;8.824;2023-06-04T03:02:47;18.63;;;12.45;;
66607;SDS011;53462;39.616;8.824;2023-06-04T03:05:15;22.20;;;12.88;;
66607;SDS011;53462;39.616;8.824;2023-06-04T03:07:43;17.50;;;12.23;;
66607;SDS011;53462;39.616;8.824;2023-06-04T03:10:11;20.70;;;12.73;;
66607;SDS011;53462;39.616;8.824;2023-06-04T03:12:38;20.92;;;11.85;;
66607;SDS011;53462;39.616;8.824;2023-06-04T03:15:04;21.48;;;12.10;;
66607;SDS011;53462;39.616;8.824;2023-06-04T03:17:31;21.25;;;12.85;;
66607;SDS011;53462;39.616;8.824;2023-06-04T03:19:57;20.75;;;13.02;;
66607;SDS011;53462;39.616;8.824;2023-06-04T03:22:23;22.25;;;12.68;;
66607;SDS011;53462;39.616;8.824;2023-06-04T03:24:49;21.98;;;12.95;;
66607;SDS011;53462;39.616;8.824;2023-06-04T03:27:18;23.35;;;12.70;;
66607;SDS011;53462;39.616;8.824;2023-06-04T03:29:44;22.83;;;13.82;;
66607;SDS011;53462;39.616;8.824;2023-06-04T03:32:12;23.50;;;14.10;;
66607;SDS011;53462;39.616;8.824;2023-06-04T03:34:38;23.50;;;14.07;;
66607;SDS011;53462;39.616;8.824;2023-06-04T03:37:04;21.17;;;14.30;;
66607;SDS011;53462;39.616;8.824;2023-06-04T03:39:31;27.58;;;13.82;;
66607;SDS011;53462;39.616;8.824;2023-06-04T03:41:59;24.50;;;13.82;;
66607;SDS011;53462;39.616;8.824;2023-06-04T03:44:26;21.65;;;12.30;;
66607;SDS011;53462;39.616;8.824;2023-06-04T03:46:52;19.95;;;12.02;;
66607;SDS011;53462;39.616;8.824;2023-06-04T03:49:18;18.60;;;12.40;;
66607;SDS011;53462;39.616;8.824;2023-06-04T03:51:46;21.67;;;12.15;;
66607;SDS011;53462;39.616;8.824;2023-06-04T03:54:13;19.80;;;11.63;;
66607;SDS011;53462;39.616;8.824;2023-06-04T03:56:46;17.70;;;11.88;;
66607;SDS011;53462;39.616;8.824;2023-06-04T03:59:12;18.25;;;10.65;;
66607;SDS011;53462;39.616;8.824;2023-06-04T04:01:39;17.38;;;11.98;;
66607;SDS011;53462;39.616;8.824;2023-06-04T04:04:05;19.50;;;11.80;;
66607;SDS011;53462;39.616;8.824;2023-06-04T04:06:31;20.88;;;12.65;;
66607;SDS011;53462;39.616;8.824;2023-06-04T04:08:58;21.85;;;12.85;;
66607;SDS011;53462;39.616;8.824;2023-06-04T04:11:24;18.35;;;12.00;;
66607;SDS011;53462;39.616;8.824;2023-06-04T04:13:51;18.27;;;11.85;;
66607;SDS011;53462;39.616;8.824;2023-06-04T04:16:18;20.13;;;11.27;;
66607;SDS011;53462;39.616;8.824;2023-06-04T04:18:45;17.95;;;11.02;;
66607;SDS011;53462;39.616;8.824;2023-06-04T04:21:11;19.63;;;11.90;;
66607;SDS011;53462;39.616;8.824;2023-06-04T04:23:39;18.42;;;12.27;;
66607;SDS011;53462;39.616;8.824;2023-06-04T04:26:07;21.73;;;12.50;;
66607;SDS011;53462;39.616;8.824;2023-06-04T04:28:33;23.15;;;13.18;;
66607;SDS011;53462;39.616;8.824;2023-06-04T04:31:00;22.92;;;14.45;;
66607;SDS011;53462;39.616;8.824;2023-06-04T04:33:31;22.80;;;13.73;;
66607;SDS011;53462;39.616;8.824;2023-06-04T04:35:59;23.83;;;14.60;;
66607;SDS011;53462;39.616;8.824;2023-06-04T04:38:28;22.88;;;14.80;;
66607;SDS011;53462;39.616;8.824;2023-06-04T04:41:00;27.77;;;15.77;;
66607;SDS011;53462;39.616;8.824;2023-06-04T04:43:32;25.65;;;14.70;;
66607;SDS011;53462;39.616;8.824;2023-06-04T04:46:06;24.85;;;14.30;;
66607;SDS011;53462;39.616;8.824;2023-06-04T04:48:32;20.83;;;13.38;;
66607;SDS011;53462;39.616;8.824;2023-06-04T04:50:58;23.13;;;14.20;;
66607;SDS011;53462;39.616;8.824;2023-06-04T04:53:26;21.02;;;13.43;;
66607;SDS011;53462;39.616;8.824;2023-06-04T04:55:53;23.27;;;14.35;;
66607;SDS011;53462;39.616;8.824;2023-06-04T04:58:19;21.50;;;14.27;;
66607;SDS011;53462;39.616;8.824;2023-06-04T05:00:46;24.85;;;15.23;;
66607;SDS011;53462;39.616;8.824;2023-06-04T05:03:13;22.23;;;14.15;;
66607;SDS011;53462;39.616;8.824;2023-06-04T05:05:39;19.48;;;12.15;;
66607;SDS011;53462;39.616;8.824;2023-06-04T05:08:06;20.67;;;12.57;;
66607;SDS011;53462;39.616;8.824;2023-06-04T05:10:37;20.45;;;12.27;;
66607;SDS011;53462;39.616;8.824;2023-06-04T05:13:04;21.00;;;12.13;;
66607;SDS011;53462;39.616;8.824;2023-06-04T05:15:38;19.90;;;11.85;;
66607;SDS011;53462;39.616;8.824;2023-06-04T05:18:08;18.90;;;11.35;;
66607;SDS011;53462;39.616;8.824;2023-06-04T05:20:36;18.42;;;11.35;;
66607;SDS011;53462;39.616;8.824;2023-06-04T05:23:06;14.75;;;9.73;;
66607;SDS011;53462;39.616;8.824;2023-06-04T05:25:32;17.15;;;9.95;;
66607;SDS011;53462;39.616;8.824;2023-06-04T05:28:00;14.80;;;9.73;;
66607;SDS011;53462;39.616;8.824;2023-06-04T05:30:27;17.15;;;10.30;;
66607;SDS011;53462;39.616;8.824;2023-06-04T05:32:53;14.10;;;9.85;;
66607;SDS011;53462;39.616;8.824;2023-06-04T05:35:22;16.08;;;9.70;;
66607;SDS011;53462;39.616;8.824;2023-06-04T05:37:48;19.30;;;10.13;;
66607;SDS011;53462;39.616;8.824;2023-06-04T05:40:20;15.95;;;9.35;;
66607;SDS011;53462;39.616;8.824;2023-06-04T05:42:47;14.75;;;9.13;;
66607;SDS011;53462;39.616;8.824;2023-06-04T05:45:14;13.98;;;8.75;;
66607;SDS011;53462;39.616;8.824;2023-06-04T05:47:40;12.70;;;8.43;;
66607;SDS011;53462;39.616;8.824;2023-06-04T05:50:07;13.52;;;8.80;;
66607;SDS011;53462;39.616;8.824;2023-06-04T05:52:35;11.82;;;7.82;;
66607;SDS011;53462;39.616;8.824;2023-06-04T05:55:04;13.73;;;8.00;;
66607;SDS011;53462;39.616;8.824;2023-06-04T05:57:33;15.02;;;8.30;;
66607;SDS011;53462;39.616;8.824;2023-06-04T05:59:59;12.10;;;8.32;;
66607;SDS011;53462;39.616;8.824;2023-06-04T06:02:25;16.08;;;8.50;;
66607;SDS011;53462;39.616;8.824;2023-06-04T06:04:51;12.40;;;7.75;;
66607;SDS011;53462;39.616;8.824;2023-06-04T06:07:17;11.25;;;7.68;;
66607;SDS011;53462;39.616;8.824;2023-06-04T06:09:44;11.80;;;8.07;;
66607;SDS011;53462;39.616;8.824;2023-06-04T06:12:10;15.50;;;8.32;;
66607;SDS011;53462;39.616;8.824;2023-06-04T06:14:38;13.55;;;7.78;;
66607;SDS011;53462;39.616;8.824;2023-06-04T06:17:05;14.32;;;9.07;;
66607;SDS011;53462;39.616;8.824;2023-06-04T06:19:32;12.10;;;7.95;;
66607;SDS011;53462;39.616;8.824;2023-06-04T06:21:57;15.60;;;7.88;;
66607;SDS011;53462;39.616;8.824;2023-06-04T06:24:25;13.55;;;8.90;;
66607;SDS011;53462;39.616;8.824;2023-06-04T06:26:51;14.55;;;8.02;;
66607;SDS011;53462;39.616;8.824;2023-06-04T06:29:17;16.88;;;8.38;;
66607;SDS011;53462;39.616;8.824;2023-06-04T06:31:43;14.95;;;7.88;;
66607;SDS011;53462;39.616;8.824;2023-06-04T06:34:09;12.40;;;8.02;;
66607;SDS011;53462;39.616;8.824;2023-06-04T06:36:35;12.32;;;8.68;;
66607;SDS011;53462;39.616;8.824;2023-06-04T06:39:01;11.68;;;7.70;;
66607;SDS011;53462;39.616;8.824;2023-06-04T06:41:27;13.27;;;7.55;;
66607;SDS011;53462;39.616;8.824;2023-06-04T06:43:55;13.18;;;7.97;;
66607;SDS011;53462;39.616;8.824;2023-06-04T06:46:21;10.77;;;7.20;;
66607;SDS011;53462;39.616;8.824;2023-06-04T06:48:46;12.57;;;7.30;;
66607;SDS011;53462;39.616;8.824;2023-06-04T06:51:13;10.60;;;6.63;;
66607;SDS011;53462;39.616;8.824;2023-06-04T06:53:39;14.52;;;7.70;;
66607;SDS011;53462;39.616;8.824;2023-06-04T06:56:06;11.18;;;6.40;;
66607;SDS011;53462;39.616;8.824;2023-06-04T06:58:32;11.80;;;6.43;;
66607;SDS011;53462;39.616;8.824;2023-06-04T07:00:58;8.63;;;6.22;;
66607;SDS011;53462;39.616;8.824;2023-06-04T07:03:24;12.15;;;6.07;;
66607;SDS011;53462;39.616;8.824;2023-06-04T07:05:50;13.10;;;6.45;;
66607;SDS011;53462;39.616;8.824;2023-06-04T07:08:16;14.60;;;6.70;;
66607;SDS011;53462;39.616;8.824;2023-06-04T07:10:42;10.85;;;6.18;;
66607;SDS011;53462;39.616;8.824;2023-06-04T07:13:08;12.48;;;6.60;;
66607;SDS011;53462;39.616;8.824;2023-06-04T07:15:34;9.98;;;6.22;;
66607;SDS011;53462;39.616;8.824;2023-06-04T07:18:00;12.20;;;6.82;;
66607;SDS011;53462;39.616;8.824;2023-06-04T07:20:26;14.13;;;6.22;;
66607;SDS011;53462;39.616;8.824;2023-06-04T07:22:52;10.18;;;6.30;;
66607;SDS011;53462;39.616;8.824;2023-06-04T07:25:19;8.10;;;6.00;;
66607;SDS011;53462;39.616;8.824;2023-06-04T07:27:45;10.63;;;5.90;;
66607;SDS011;53462;39.616;8.824;2023-06-04T07:30:13;9.32;;;5.85;;
66607;SDS011;53462;39.616;8.824;2023-06-04T07:32:39;12.95;;;6.15;;
66607;SDS011;53462;39.616;8.824;2023-06-04T07:35:05;14.02;;;6.07;;
66607;SDS011;53462;39.616;8.824;2023-06-04T07:37:31;10.98;;;6.18;;
66607;SDS011;53462;39.616;8.824;2023-06-04T07:39:57;13.13;;;6.25;;
66607;SDS011;53462;39.616;8.824;2023-06-04T07:42:23;9.82;;;6.60;;
66607;SDS011;53462;39.616;8.824;2023-06-04T07:44:49;13.57;;;6.47;;
66607;SDS011;53462;39.616;8.824;2023-06-04T07:47:15;10.85;;;6.80;;
66607;SDS011;53462;39.616;8.824;2023-06-04T07:49:41;13.15;;;7.38;;
66607;SDS011;53462;39.616;8.824;2023-06-04T07:52:07;9.63;;;6.07;;
66607;SDS011;53462;39.616;8.824;2023-06-04T07:54:33;11.80;;;5.35;;
66607;SDS011;53462;39.616;8.824;2023-06-04T07:56:58;5.75;;;4.18;;
66607;SDS011;53462;39.616;8.824;2023-06-04T07:59:24;10.43;;;4.63;;
66607;SDS011;53462;39.616;8.824;2023-06-04T08:01:50;8.55;;;3.95;;
66607;SDS011;53462;39.616;8.824;2023-06-04T08:04:17;7.40;;;3.42;;
66607;SDS011;53462;39.616;8.824;2023-06-04T08:06:43;8.90;;;3.53;;
66607;SDS011;53462;39.616;8.824;2023-06-04T08:09:09;5.07;;;3.60;;
66607;SDS011;53462;39.616;8.824;2023-06-04T08:11:36;8.68;;;4.28;;
66607;SDS011;53462;39.616;8.824;2023-06-04T08:14:02;6.97;;;3.50;;
66607;SDS011;53462;39.616;8.824;2023-06-04T08:16:31;7.47;;;3.90;;
66607;SDS011;53462;39.616;8.824;2023-06-04T08:18:57;6.00;;;3.75;;
66607;SDS011;53462;39.616;8.824;2023-06-04T08:21:26;7.30;;;4.13;;
66607;SDS011;53462;39.616;8.824;2023-06-04T08:23:52;7.45;;;4.22;;
66607;SDS011;53462;39.616;8.824;2023-06-04T08:26:18;7.82;;;4.55;;
66607;SDS011;53462;39.616;8.824;2023-06-04T08:28:47;9.50;;;4.93;;
66607;SDS011;53462;39.616;8.824;2023-06-04T08:31:14;8.35;;;4.78;;
66607;SDS011;53462;39.616;8.824;2023-06-04T08:33:40;7.32;;;4.82;;
66607;SDS011;53462;39.616;8.824;2023-06-04T08:36:06;11.02;;;5.50;;
66607;SDS011;53462;39.616;8.824;2023-06-04T08:38:32;17.05;;;5.80;;
66607;SDS011;53462;39.616;8.824;2023-06-04T08:41:01;11.48;;;6.03;;
66607;SDS011;53462;39.616;8.824;2023-06-04T08:43:35;11.55;;;5.55;;
66607;SDS011;53462;39.616;8.824;2023-06-04T08:46:03;9.27;;;5.13;;
66607;SDS011;53462;39.616;8.824;2023-06-04T08:48:34;11.38;;;5.35;;
66607;SDS011;53462;39.616;8.824;2023-06-04T08:51:02;7.63;;;4.65;;
66607;SDS011;53462;39.616;8.824;2023-06-04T08:53:31;7.00;;;4.63;;
66607;SDS011;53462;39.616;8.824;2023-06-04T08:55:57;6.45;;;3.75;;
66607;SDS011;53462;39.616;8.824;2023-06-04T08:58:23;8.48;;;3.80;;
66607;SDS011;53462;39.616;8.824;2023-06-04T09:00:50;10.30;;;4.13;;
66607;SDS011;53462;39.616;8.824;2023-06-04T09:03:16;9.95;;;4.18;;
66607;SDS011;53462;39.616;8.824;2023-06-04T09:05:45;8.73;;;3.70;;
66607;SDS011;53462;39.616;8.824;2023-06-04T09:08:15;8.73;;;4.13;;
66607;SDS011;53462;39.616;8.824;2023-06-04T09:10:46;7.93;;;3.60;;
66607;SDS011;53462;39.616;8.824;2023-06-04T09:13:17;5.72;;;3.38;;
66607;SDS011;53462;39.616;8.824;2023-06-04T09:15:57;10.77;;;3.20;;
66607;SDS011;53462;39.616;8.824;2023-06-04T09:18:25;6.93;;;3.80;;
66607;SDS011;53462;39.616;8.824;2023-06-04T09:21:01;9.68;;;3.50;;
66607;SDS011;53462;39.616;8.824;2023-06-04T09:23:31;8.43;;;3.42;;
66607;SDS011;53462;39.616;8.824;2023-06-04T09:26:08;11.30;;;8.10;;
66607;SDS011;53462;39.616;8.824;2023-06-04T09:28:35;7.78;;;4.05;;
66607;SDS011;53462;39.616;8.824;2023-06-04T09:31:07;11.70;;;4.35;;
66607;SDS011;53462;39.616;8.824;2023-06-04T09:33:48;8.82;;;4.40;;
66607;SDS011;53462;39.616;8.824;2023-06-04T09:36:15;24.38;;;13.38;;
66607;SDS011;53462;39.616;8.824;2023-06-04T09:38:42;10.52;;;5.30;;
66607;SDS011;53462;39.616;8.824;2023-06-04T09:41:16;7.90;;;3.20;;
66607;SDS011;53462;39.616;8.824;2023-06-04T09:43:44;9.75;;;3.72;;
66607;SDS011;53462;39.616;8.824;2023-06-04T09:46:15;6.32;;;3.22;;
66607;SDS011;53462;39.616;8.824;2023-06-04T09:48:42;10.70;;;5.22;;
66607;SDS011;53462;39.616;8.824;2023-06-04T09:51:12;6.47;;;3.15;;
66607;SDS011;53462;39.616;8.824;2023-06-04T09:53:58;9.00;;;4.13;;
66607;SDS011;53462;39.616;8.824;2023-06-04T09:56:25;8.50;;;4.20;;
66607;SDS011;53462;39.616;8.824;2023-06-04T09:58:56;7.90;;;4.30;;
66607;SDS011;53462;39.616;8.824;2023-06-04T10:01:25;16.88;;;10.27;;
66607;SDS011;53462;39.616;8.824;2023-06-04T10:03:52;16.67;;;9.25;;
66607;SDS011;53462;39.616;8.824;2023-06-04T10:06:19;11.00;;;6.22;;
66607;SDS011;53462;39.616;8.824;2023-06-04T10:08:48;8.15;;;4.05;;
66607;SDS011;53462;39.616;8.824;2023-06-04T10:11:17;10.57;;;4.80;;
66607;SDS011;53462;39.616;8.824;2023-06-04T10:13:54;7.78;;;3.58;;
66607;SDS011;53462;39.616;8.824;2023-06-04T10:16:27;15.00;;;7.57;;
66607;SDS011;53462;39.616;8.824;2023-06-04T10:18:55;7.25;;;4.13;;
66607;SDS011;53462;39.616;8.824;2023-06-04T10:21:22;19.05;;;7.30;;
66607;SDS011;53462;39.616;8.824;2023-06-04T10:23:49;17.23;;;7.82;;
66607;SDS011;53462;39.616;8.824;2023-06-04T10:26:15;9.73;;;4.97;;
66607;SDS011;53462;39.616;8.824;2023-06-04T10:28:42;5.88;;;4.20;;
66607;SDS011;53462;39.616;8.824;2023-06-04T10:31:09;9.25;;;5.50;;
66607;SDS011;53462;39.616;8.824;2023-06-04T10:33:35;5.82;;;3.15;;
66607;SDS011;53462;39.616;8.824;2023-06-04T10:36:15;9.98;;;3.08;;
66607;SDS011;53462;39.616;8.824;2023-06-04T10:38:50;10.57;;;4.75;;
66607;SDS011;53462;39.616;8.824;2023-06-04T10:43:47;6.97;;;3.40;;
66607;SDS011;53462;39.616;8.824;2023-06-04T10:46:17;5.03;;;2.53;;
66607;SDS011;53462;39.616;8.824;2023-06-04T10:48:50;4.78;;;2.35;;
66607;SDS011;53462;39.616;8.824;2023-06-04T10:51:30;7.43;;;4.10;;
66607;SDS011;53462;39.616;8.824;2023-06-04T10:53:57;4.75;;;2.67;;
66607;SDS011;53462;39.616;8.824;2023-06-04T10:56:27;6.15;;;3.60;;
66607;SDS011;53462;39.616;8.824;2023-06-04T10:58:55;12.70;;;3.50;;
66607;SDS011;53462;39.616;8.824;2023-06-04T11:01:24;11.05;;;6.40;;
66607;SDS011;53462;39.616;8.824;2023-06-04T11:03:54;6.00;;;3.40;;
66607;SDS011;53462;39.616;8.824;2023-06-04T11:06:21;5.28;;;1.83;;
66607;SDS011;53462;39.616;8.824;2023-06-04T11:08:47;6.00;;;3.15;;
66607;SDS011;53462;39.616;8.824;2023-06-04T11:11:14;4.90;;;2.58;;
66607;SDS011;53462;39.616;8.824;2023-06-04T11:13:41;9.00;;;2.80;;
66607;SDS011;53462;39.616;8.824;2023-06-04T11:16:14;12.85;;;6.90;;
66607;SDS011;53462;39.616;8.824;2023-06-04T11:18:54;6.05;;;2.83;;
66607;SDS011;53462;39.616;8.824;2023-06-04T11:21:24;13.02;;;6.97;;
66607;SDS011;53462;39.616;8.824;2023-06-04T11:23:54;4.88;;;2.85;;
66607;SDS011;53462;39.616;8.824;2023-06-04T11:26:29;8.15;;;3.08;;
66607;SDS011;53462;39.616;8.824;2023-06-04T11:28:58;5.90;;;2.17;;
66607;SDS011;53462;39.616;8.824;2023-06-04T11:31:25;5.30;;;2.40;;
66607;SDS011;53462;39.616;8.824;2023-06-04T11:33:51;2.72;;;1.80;;
66607;SDS011;53462;39.616;8.824;2023-06-04T11:36:24;4.47;;;1.92;;
66607;SDS011;53462;39.616;8.824;2023-06-04T11:38:55;5.93;;;2.08;;
66607;SDS011;53462;39.616;8.824;2023-06-04T11:41:23;5.78;;;1.77;;
66607;SDS011;53462;39.616;8.824;2023-06-04T11:43:53;4.32;;;1.58;;
66607;SDS011;53462;39.616;8.824;2023-06-04T11:46:21;5.30;;;1.60;;
66607;SDS011;53462;39.616;8.824;2023-06-04T11:48:47;3.17;;;1.60;;
66607;SDS011;53462;39.616;8.824;2023-06-04T11:51:15;2.63;;;1.40;;
66607;SDS011;53462;39.616;8.824;2023-06-04T11:53:41;3.63;;;1.77;;
66607;SDS011;53462;39.616;8.824;2023-06-04T11:56:07;2.95;;;1.80;;
66607;SDS011;53462;39.616;8.824;2023-06-04T11:58:34;7.28;;;2.40;;
66607;SDS011;53462;39.616;8.824;2023-06-04T12:01:00;4.60;;;1.80;;
66607;SDS011;53462;39.616;8.824;2023-06-04T12:03:42;3.88;;;1.83;;
66607;SDS011;53462;39.616;8.824;2023-06-04T12:06:09;3.97;;;1.70;;
66607;SDS011;53462;39.616;8.824;2023-06-04T12:11:24;4.45;;;1.67;;
66607;SDS011;53462;39.616;8.824;2023-06-04T12:13:57;4.95;;;2.10;;
66607;SDS011;53462;39.616;8.824;2023-06-04T12:16:24;3.22;;;1.80;;
66607;SDS011;53462;39.616;8.824;2023-06-04T12:18:50;4.22;;;1.90;;
66607;SDS011;53462;39.616;8.824;2023-06-04T12:21:23;4.45;;;2.10;;
66607;SDS011;53462;39.616;8.824;2023-06-04T12:24:09;5.70;;;2.00;;
66607;SDS011;53462;39.616;8.824;2023-06-04T12:26:36;4.72;;;1.77;;
66607;SDS011;53462;39.616;8.824;2023-06-04T12:29:09;3.25;;;1.27;;
66607;SDS011;53462;39.616;8.824;2023-06-04T12:31:37;2.78;;;1.48;;
66607;SDS011;53462;39.616;8.824;2023-06-04T12:34:07;3.10;;;1.10;;
66607;SDS011;53462;39.616;8.824;2023-06-04T12:36:33;3.10;;;1.40;;
66607;SDS011;53462;39.616;8.824;2023-06-04T12:39:00;2.22;;;1.33;;
66607;SDS011;53462;39.616;8.824;2023-06-04T12:41:28;2.65;;;1.40;;
66607;SDS011;53462;39.616;8.824;2023-06-04T12:43:55;3.70;;;1.48;;
66607;SDS011;53462;39.616;8.824;2023-06-04T12:46:22;1.80;;;1.20;;
66607;SDS011;53462;39.616;8.824;2023-06-04T12:48:51;2.22;;;1.23;;
66607;SDS011;53462;39.616;8.824;2023-06-04T12:51:18;2.63;;;1.50;;
66607;SDS011;53462;39.616;8.824;2023-06-04T12:53:46;3.38;;;1.33;;
66607;SDS011;53462;39.616;8.824;2023-06-04T12:56:13;2.53;;;1.20;;
66607;SDS011;53462;39.616;8.824;2023-06-04T12:58:39;6.60;;;1.40;;
66607;SDS011;53462;39.616;8.824;2023-06-04T13:01:05;1.85;;;1.20;;
66607;SDS011;53462;39.616;8.824;2023-06-04T13:03:32;3.65;;;1.38;;
66607;SDS011;53462;39.616;8.824;2023-06-04T13:05:59;2.50;;;1.25;;
66607;SDS011;53462;39.616;8.824;2023-06-04T13:08:25;2.22;;;1.17;;
66607;SDS011;53462;39.616;8.824;2023-06-04T13:10:51;3.58;;;1.45;;
66607;SDS011;53462;39.616;8.824;2023-06-04T13:13:18;2.80;;;1.40;;
66607;SDS011;53462;39.616;8.824;2023-06-04T13:15:46;4.43;;;1.10;;
66607;SDS011;53462;39.616;8.824;2023-06-04T13:18:12;2.53;;;1.10;;
66607;SDS011;53462;39.616;8.824;2023-06-04T13:20:41;2.50;;;1.25;;
66607;SDS011;53462;39.616;8.824;2023-06-04T13:23:08;2.80;;;1.20;;
66607;SDS011;53462;39.616;8.824;2023-06-04T13:25:34;1.92;;;1.10;;
66607;SDS011;53462;39.616;8.824;2023-06-04T13:28:02;1.50;;;0.93;;
66607;SDS011;53462;39.616;8.824;2023-06-04T13:30:28;2.17;;;1.20;;
66607;SDS011;53462;39.616;8.824;2023-06-04T13:32:55;3.55;;;1.08;;
66607;SDS011;53462;39.616;8.824;2023-06-04T13:35:23;2.15;;;1.00;;
66607;SDS011;53462;39.616;8.824;2023-06-04T13:37:50;2.05;;;0.90;;
66607;SDS011;53462;39.616;8.824;2023-06-04T13:40:16;2.00;;;1.00;;
66607;SDS011;53462;39.616;8.824;2023-06-04T13:42:42;3.08;;;1.00;;
66607;SDS011;53462;39.616;8.824;2023-06-04T13:45:09;2.03;;;1.00;;
66607;SDS011;53462;39.616;8.824;2023-06-04T13:47:35;3.00;;;1.10;;
66607;SDS011;53462;39.616;8.824;2023-06-04T13:50:01;3.33;;;1.27;;
66607;SDS011;53462;39.616;8.824;2023-06-04T13:52:27;1.40;;;1.10;;
66607;SDS011;53462;39.616;8.824;2023-06-04T13:54:55;3.08;;;1.08;;
66607;SDS011;53462;39.616;8.824;2023-06-04T13:57:24;2.30;;;1.20;;
66607;SDS011;53462;39.616;8.824;2023-06-04T13:59:50;3.08;;;1.10;;
66607;SDS011;53462;39.616;8.824;2023-06-04T14:02:16;1.92;;;1.10;;
66607;SDS011;53462;39.616;8.824;2023-06-04T14:04:42;1.80;;;1.10;;
66607;SDS011;53462;39.616;8.824;2023-06-04T14:07:08;1.88;;;1.10;;
66607;SDS011;53462;39.616;8.824;2023-06-04T14:09:34;3.25;;;1.10;;
66607;SDS011;53462;39.616;8.824;2023-06-04T14:12:03;2.13;;;1.23;;
66607;SDS011;53462;39.616;8.824;2023-06-04T14:14:30;5.05;;;1.25;;
66607;SDS011;53462;39.616;8.824;2023-06-04T14:17:01;2.00;;;1.52;;
66607;SDS011;53462;39.616;8.824;2023-06-04T14:19:28;1.58;;;1.08;;
66607;SDS011;53462;39.616;8.824;2023-06-04T14:21:54;4.10;;;1.20;;
66607;SDS011;53462;39.616;8.824;2023-06-04T14:24:20;1.73;;;1.08;;
66607;SDS011;53462;39.616;8.824;2023-06-04T14:26:46;2.33;;;1.10;;
66607;SDS011;53462;39.616;8.824;2023-06-04T14:29:12;1.88;;;1.17;;
66607;SDS011;53462;39.616;8.824;2023-06-04T14:31:38;3.35;;;1.23;;
66607;SDS011;53462;39.616;8.824;2023-06-04T14:34:04;3.83;;;1.33;;
66607;SDS011;53462;39.616;8.824;2023-06-04T14:36:32;2.92;;;1.40;;
66607;SDS011;53462;39.616;8.824;2023-06-04T14:38:58;1.95;;;1.10;;
66607;SDS011;53462;39.616;8.824;2023-06-04T14:41:24;2.35;;;1.30;;
66607;SDS011;53462;39.616;8.824;2023-06-04T14:43:50;3.20;;;1.13;;
66607;SDS011;53462;39.616;8.824;2023-06-04T14:46:16;2.25;;;1.25;;
66607;SDS011;53462;39.616;8.824;2023-06-04T14:48:42;2.83;;;1.27;;
66607;SDS011;53462;39.616;8.824;2023-06-04T14:51:08;3.50;;;1.52;;
66607;SDS011;53462;39.616;8.824;2023-06-04T14:53:35;5.15;;;1.38;;